sensor_id;sensor_type;location;lat;lon;timestamp;pressure;altitude;pressure_sealevel;temperature;humidity
34586;BME280;20816;50.950;11.108;2023-12-07T00:00:00;98564.44;;;2.10;100.00
34586;BME280;20816;50.950;11.108;2023-12-07T00:02:26;98572.19;;;2.07;100.00
34586;BME280;20816;50.950;11.108;2023-12-07T00:04:53;98572.19;;;2.06;100.00
34586;BME280;20816;50.950;11.108;2023-12-07T00:07:20;98577.44;;;2.13;100.00
34586;BME280;20816;50.950;11.108;2023-12-07T00:09:46;98572.97;;;2.02;100.00
34586;BME280;20816;50.950;11.108;2023-12-07T00:12:14;98585.06;;;1.98;100.00
34586;BME280;20816;50.950;11.108;2023-12-07T00:14:41;98585.06;;;2.00;100.00
34586;BME280;20816;50.950;11.108;2023-12-07T00:17:08;98581.56;;;1.96;100.00
34586;BME280;20816;50.950;11.108;2023-12-07T00:19:34;98580.84;;;2.08;100.00
34586;BME280;20816;50.950;11.108;2023-12-07T00:22:02;98579.81;;;1.95;100.00
34586;BME280;20816;50.950;11.108;2023-12-07T00:24:28;98581.63;;;2.02;100.00
34586;BME280;20816;50.950;11.108;2023-12-07T00:26:56;98575.56;;;1.99;100.00
34586;BME280;20816;50.950;11.108;2023-12-07T00:29:22;98578.13;;;1.99;100.00
34586;BME280;20816;50.950;11.108;2023-12-07T00:31:49;98582.44;;;1.96;100.00
34586;BME280;20816;50.950;11.108;2023-12-07T00:34:16;98589.38;;;1.98;100.00
34586;BME280;20816;50.950;11.108;2023-12-07T00:36:45;98592.72;;;1.90;100.00
34586;BME280;20816;50.950;11.108;2023-12-07T00:39:12;98600.59;;;1.96;100.00
34586;BME280;20816;50.950;11.108;2023-12-07T00:41:38;98597.94;;;1.93;100.00
34586;BME280;20816;50.950;11.108;2023-12-07T00:44:05;98585.81;;;1.91;100.00
34586;BME280;20816;50.950;11.108;2023-12-07T00:46:32;98590.22;;;1.98;100.00
34586;BME280;20816;50.950;11.108;2023-12-07T00:48:58;98596.19;;;1.92;100.00
34586;BME280;20816;50.950;11.108;2023-12-07T00:51:25;98594.56;;;2.01;100.00
34586;BME280;20816;50.950;11.108;2023-12-07T00:53:52;98603.94;;;1.88;100.00
34586;BME280;20816;50.950;11.108;2023-12-07T00:56:18;98601.47;;;1.99;100.00
34586;BME280;20816;50.950;11.108;2023-12-07T00:58:45;98599.72;;;1.98;100.00
34586;BME280;20816;50.950;11.108;2023-12-07T01:01:12;98604.91;;;1.96;100.00
34586;BME280;20816;50.950;11.108;2023-12-07T01:03:39;98612.63;;;1.94;100.00
34586;BME280;20816;50.950;11.108;2023-12-07T01:06:07;98613.47;;;1.90;100.00
34586;BME280;20816;50.950;11.108;2023-12-07T01:08:34;98624.06;;;2.09;100.00
34586;BME280;20816;50.950;11.108;2023-12-07T01:11:01;98621.34;;;1.98;100.00
34586;BME280;20816;50.950;11.108;2023-12-07T01:13:28;98624.03;;;2.06;100.00
34586;BME280;20816;50.950;11.108;2023-12-07T01:15:55;98629.22;;;2.06;100.00
34586;BME280;20816;50.950;11.108;2023-12-07T01:18:22;98637.75;;;1.99;100.00
34586;BME280;20816;50.950;11.108;2023-12-07T01:20:48;98648.91;;;1.94;100.00
34586;BME280;20816;50.950;11.108;2023-12-07T01:23:16;98661.84;;;1.91;100.00
34586;BME280;20816;50.950;11.108;2023-12-07T01:25:42;98665.28;;;1.89;100.00
34586;BME280;20816;50.950;11.108;2023-12-07T01:28:09;98659.19;;;1.87;100.00
34586;BME280;20816;50.950;11.108;2023-12-07T01:30:36;98652.31;;;1.89;100.00
34586;BME280;20816;50.950;11.108;2023-12-07T01:33:03;98660.00;;;1.84;100.00
34586;BME280;20816;50.950;11.108;2023-12-07T01:35:29;98658.38;;;1.89;100.00
34586;BME280;20816;50.950;11.108;2023-12-07T01:37:56;98660.97;;;1.89;100.00
34586;BME280;20816;50.950;11.108;2023-12-07T01:40:23;98660.13;;;1.93;100.00
34586;BME280;20816;50.950;11.108;2023-12-07T01:42:51;98654.09;;;1.94;100.00
34586;BME280;20816;50.950;11.108;2023-12-07T01:45:19;98662.69;;;1.89;100.00
34586;BME280;20816;50.950;11.108;2023-12-07T01:47:47;98658.56;;;2.05;100.00
34586;BME280;20816;50.950;11.108;2023-12-07T01:50:16;98670.69;;;2.06;100.00
34586;BME280;20816;50.950;11.108;2023-12-07T01:52:47;98666.28;;;2.02;100.00
34586;BME280;20816;50.950;11.108;2023-12-07T01:55:14;98662.69;;;1.89;100.00
34586;BME280;20816;50.950;11.108;2023-12-07T01:57:43;98667.06;;;1.94;100.00
34586;BME280;20816;50.950;11.108;2023-12-07T02:00:14;98668.81;;;1.95;100.00
34586;BME280;20816;50.950;11.108;2023-12-07T02:02:41;98655.22;;;2.12;100.00
34586;BME280;20816;50.950;11.108;2023-12-07T02:05:09;98663.75;;;2.05;100.00
34586;BME280;20816;50.950;11.108;2023-12-07T02:07:36;98668.00;;;2.01;100.00
34586;BME280;20816;50.950;11.108;2023-12-07T02:10:03;98675.81;;;2.03;100.00
34586;BME280;20816;50.950;11.108;2023-12-07T02:12:30;98671.44;;;1.99;100.00
34586;BME280;20816;50.950;11.108;2023-12-07T02:14:57;98675.88;;;2.06;100.00
34586;BME280;20816;50.950;11.108;2023-12-07T02:17:32;98678.41;;;2.03;100.00
34586;BME280;20816;50.950;11.108;2023-12-07T02:22:52;98682.91;;;2.16;100.00
34586;BME280;20816;50.950;11.108;2023-12-07T02:25:32;98686.38;;;2.16;100.00
34586;BME280;20816;50.950;11.108;2023-12-07T02:28:02;98693.16;;;2.07;100.00
34586;BME280;20816;50.950;11.108;2023-12-07T02:30:28;98686.25;;;2.09;100.00
34586;BME280;20816;50.950;11.108;2023-12-07T02:32:56;98690.59;;;2.11;100.00
34586;BME280;20816;50.950;11.108;2023-12-07T02:35:24;98681.16;;;2.13;100.00
34586;BME280;20816;50.950;11.108;2023-12-07T02:37:51;98682.88;;;2.14;100.00
34586;BME280;20816;50.950;11.108;2023-12-07T02:40:22;98684.69;;;2.20;100.00
34586;BME280;20816;50.950;11.108;2023-12-07T02:42:49;98688.09;;;2.16;100.00
34586;BME280;20816;50.950;11.108;2023-12-07T02:45:17;98692.50;;;2.21;100.00
34586;BME280;20816;50.950;11.108;2023-12-07T02:47:43;98682.06;;;2.18;100.00
34586;BME280;20816;50.950;11.108;2023-12-07T02:50:12;98693.31;;;2.19;100.00
34586;BME280;20816;50.950;11.108;2023-12-07T02:52:39;98700.09;;;2.11;100.00
34586;BME280;20816;50.950;11.108;2023-12-07T02:55:07;98701.84;;;2.10;100.00
34586;BME280;20816;50.950;11.108;2023-12-07T02:57:33;98694.91;;;2.08;100.00
34586;BME280;20816;50.950;11.108;2023-12-07T03:00:01;98689.78;;;2.12;100.00
34586;BME280;20816;50.950;11.108;2023-12-07T03:02:38;98693.38;;;2.22;100.00
34586;BME280;20816;50.950;11.108;2023-12-07T03:05:06;98695.84;;;2.14;100.00
34586;BME280;20816;50.950;11.108;2023-12-07T03:07:34;98704.63;;;2.25;100.00
34586;BME280;20816;50.950;11.108;2023-12-07T03:10:01;98696.75;;;2.18;100.00
34586;BME280;20816;50.950;11.108;2023-12-07T03:12:29;98700.09;;;2.08;100.00
34586;BME280;20816;50.950;11.108;2023-12-07T03:14:56;98703.66;;;2.16;100.00
34586;BME280;20816;50.950;11.108;2023-12-07T03:17:22;98701.78;;;2.06;100.00
34586;BME280;20816;50.950;11.108;2023-12-07T03:19:49;98710.41;;;2.05;100.00
34586;BME280;20816;50.950;11.108;2023-12-07T03:22:17;98712.19;;;2.10;100.00
34586;BME280;20816;50.950;11.108;2023-12-07T03:24:48;98714.75;;;2.07;100.00
34586;BME280;20816;50.950;11.108;2023-12-07T03:27:15;98708.81;;;2.13;100.00
34586;BME280;20816;50.950;11.108;2023-12-07T03:29:42;98707.00;;;2.09;100.00
34586;BME280;20816;50.950;11.108;2023-12-07T03:32:08;98702.91;;;2.28;100.00
34586;BME280;20816;50.950;11.108;2023-12-07T03:34:35;98708.84;;;2.16;100.00
34586;BME280;20816;50.950;11.108;2023-12-07T03:37:02;98712.41;;;2.24;100.00
34586;BME280;20816;50.950;11.108;2023-12-07T03:39:29;98707.94;;;2.14;100.00
34586;BME280;20816;50.950;11.108;2023-12-07T03:41:59;98712.19;;;2.09;100.00
34586;BME280;20816;50.950;11.108;2023-12-07T03:44:25;98707.13;;;2.18;100.00
34586;BME280;20816;50.950;11.108;2023-12-07T03:46:54;98714.84;;;2.12;100.00
34586;BME280;20816;50.950;11.108;2023-12-07T03:49:21;98713.94;;;2.11;100.00
34586;BME280;20816;50.950;11.108;2023-12-07T03:51:48;98717.47;;;2.15;100.00
34586;BME280;20816;50.950;11.108;2023-12-07T03:54:15;98717.34;;;2.06;100.00
34586;BME280;20816;50.950;11.108;2023-12-07T03:56:42;98725.06;;;2.03;100.00
34586;BME280;20816;50.950;11.108;2023-12-07T03:59:08;98723.44;;;2.11;100.00
34586;BME280;20816;50.950;11.108;2023-12-07T04:01:35;98727.75;;;2.09;100.00
34586;BME280;20816;50.950;11.108;2023-12-07T04:04:02;98729.41;;;2.04;100.00
34586;BME280;20816;50.950;11.108;2023-12-07T04:06:28;98725.06;;;2.03;100.00
34586;BME280;20816;50.950;11.108;2023-12-07T04:08:56;98729.44;;;2.07;100.00
34586;BME280;20816;50.950;11.108;2023-12-07T04:11:23;98732.81;;;2.00;100.00
34586;BME280;20816;50.950;11.108;2023-12-07T04:13:50;98727.53;;;1.93;100.00
34586;BME280;20816;50.950;11.108;2023-12-07T04:16:16;98725.16;;;2.09;100.00
34586;BME280;20816;50.950;11.108;2023-12-07T04:18:43;98735.59;;;2.12;100.00
34586;BME280;20816;50.950;11.108;2023-12-07T04:21:10;98735.44;;;2.03;100.00
34586;BME280;20816;50.950;11.108;2023-12-07T04:23:37;98732.84;;;2.03;100.00
34586;BME280;20816;50.950;11.108;2023-12-07T04:26:04;98731.06;;;1.99;100.00
34586;BME280;20816;50.950;11.108;2023-12-07T04:28:30;98731.06;;;2.00;100.00
34586;BME280;20816;50.950;11.108;2023-12-07T04:30:57;98743.13;;;1.96;100.00
34586;BME280;20816;50.950;11.108;2023-12-07T04:33:24;98735.41;;;2.01;100.00
34586;BME280;20816;50.950;11.108;2023-12-07T04:35:51;98735.34;;;1.96;100.00
34586;BME280;20816;50.950;11.108;2023-12-07T04:38:17;98744.78;;;1.91;100.00
34586;BME280;20816;50.950;11.108;2023-12-07T04:40:44;98747.47;;;1.98;100.00
34586;BME280;20816;50.950;11.108;2023-12-07T04:43:11;98742.28;;;1.96;100.00
34586;BME280;20816;50.950;11.108;2023-12-07T04:45:38;98745.78;;;2.03;100.00
34586;BME280;20816;50.950;11.108;2023-12-07T04:48:05;98750.09;;;2.01;100.00
34586;BME280;20816;50.950;11.108;2023-12-07T04:50:32;98743.16;;;2.00;100.00
34586;BME280;20816;50.950;11.108;2023-12-07T04:52:58;98750.00;;;1.94;100.00
34586;BME280;20816;50.950;11.108;2023-12-07T04:55:25;98744.78;;;1.91;100.00
34586;BME280;20816;50.950;11.108;2023-12-07T04:57:53;98751.06;;;2.09;100.00
34586;BME280;20816;50.950;11.108;2023-12-07T05:00:20;98755.25;;;1.98;100.00
34586;BME280;20816;50.950;11.108;2023-12-07T05:02:48;98751.78;;;1.99;100.00
34586;BME280;20816;50.950;11.108;2023-12-07T05:05:16;98749.22;;;1.99;100.00
34586;BME280;20816;50.950;11.108;2023-12-07T05:07:43;98749.34;;;2.09;100.00
34586;BME280;20816;50.950;11.108;2023-12-07T05:10:10;98760.47;;;2.01;100.00
34586;BME280;20816;50.950;11.108;2023-12-07T05:12:36;98758.75;;;2.03;100.00
34586;BME280;20816;50.950;11.108;2023-12-07T05:15:04;98758.69;;;1.96;100.00
34586;BME280;20816;50.950;11.108;2023-12-07T05:17:32;98762.28;;;2.08;100.00
34586;BME280;20816;50.950;11.108;2023-12-07T05:19:59;98757.09;;;2.05;100.00
34586;BME280;20816;50.950;11.108;2023-12-07T05:22:26;98758.81;;;2.06;100.00
34586;BME280;20816;50.950;11.108;2023-12-07T05:24:54;98765.72;;;2.04;100.00
34586;BME280;20816;50.950;11.108;2023-12-07T05:27:20;98765.72;;;2.04;100.00
34586;BME280;20816;50.950;11.108;2023-12-07T05:29:47;98765.63;;;1.98;100.00
34586;BME280;20816;50.950;11.108;2023-12-07T05:32:14;98758.72;;;2.00;100.00
34586;BME280;20816;50.950;11.108;2023-12-07T05:34:41;98774.34;;;2.04;100.00
34586;BME280;20816;50.950;11.108;2023-12-07T05:37:08;98770.09;;;2.11;100.00
34586;BME280;20816;50.950;11.108;2023-12-07T05:39:35;98766.50;;;2.01;100.00
34586;BME280;20816;50.950;11.108;2023-12-07T05:42:02;98766.50;;;2.01;100.00
34586;BME280;20816;50.950;11.108;2023-12-07T05:44:31;98773.41;;;1.99;100.00
34586;BME280;20816;50.950;11.108;2023-12-07T05:46:57;98780.31;;;1.99;100.00
34586;BME280;20816;50.950;11.108;2023-12-07T05:49:24;98775.97;;;1.98;100.00
34586;BME280;20816;50.950;11.108;2023-12-07T05:51:51;98782.03;;;1.98;100.00
34586;BME280;20816;50.950;11.108;2023-12-07T05:54:19;98777.69;;;1.95;100.00
34586;BME280;20816;50.950;11.108;2023-12-07T05:56:49;98774.16;;;1.93;100.00
34586;BME280;20816;50.950;11.108;2023-12-07T05:59:16;98779.44;;;1.96;100.00
34586;BME280;20816;50.950;11.108;2023-12-07T06:01:42;98773.28;;;1.91;100.00
34586;BME280;20816;50.950;11.108;2023-12-07T06:04:09;98777.75;;;2.02;100.00
34586;BME280;20816;50.950;11.108;2023-12-07T06:06:37;98774.25;;;1.96;100.00
34586;BME280;20816;50.950;11.108;2023-12-07T06:09:03;98775.09;;;1.97;100.00
34586;BME280;20816;50.950;11.108;2023-12-07T06:11:32;98779.34;;;1.92;100.00
34586;BME280;20816;50.950;11.108;2023-12-07T06:14:00;98779.34;;;1.93;100.00
34586;BME280;20816;50.950;11.108;2023-12-07T06:16:27;98782.75;;;1.89;100.00
34586;BME280;20816;50.950;11.108;2023-12-07T06:18:54;98775.97;;;1.98;100.00
34586;BME280;20816;50.950;11.108;2023-12-07T06:21:21;98772.50;;;1.95;100.00
34586;BME280;20816;50.950;11.108;2023-12-07T06:23:47;98780.28;;;1.97;100.00
34586;BME280;20816;50.950;11.108;2023-12-07T06:26:15;98782.88;;;1.95;100.00
34586;BME280;20816;50.950;11.108;2023-12-07T06:28:41;98781.91;;;1.89;100.00
34586;BME280;20816;50.950;11.108;2023-12-07T06:31:09;98777.50;;;1.86;100.00
34586;BME280;20816;50.950;11.108;2023-12-07T06:33:36;98777.59;;;1.91;100.00
34586;BME280;20816;50.950;11.108;2023-12-07T06:36:03;98788.13;;;2.02;100.00
34586;BME280;20816;50.950;11.108;2023-12-07T06:38:30;98788.06;;;1.95;100.00
34586;BME280;20816;50.950;11.108;2023-12-07T06:40:57;98785.34;;;1.89;100.00
34586;BME280;20816;50.950;11.108;2023-12-07T06:43:25;98795.72;;;1.88;100.00
34586;BME280;20816;50.950;11.108;2023-12-07T06:45:52;98797.44;;;1.89;100.00
34586;BME280;20816;50.950;11.108;2023-12-07T06:48:19;98800.91;;;1.89;100.00
34586;BME280;20816;50.950;11.108;2023-12-07T06:50:46;98802.56;;;1.86;100.00
34586;BME280;20816;50.950;11.108;2023-12-07T06:53:14;98801.66;;;1.82;100.00
34586;BME280;20816;50.950;11.108;2023-12-07T06:55:41;98806.13;;;1.92;100.00
34586;BME280;20816;50.950;11.108;2023-12-07T06:58:11;98813.84;;;1.88;100.00
34586;BME280;20816;50.950;11.108;2023-12-07T07:00:38;98821.75;;;1.95;100.00
34586;BME280;20816;50.950;11.108;2023-12-07T07:03:04;98818.34;;;2.00;100.00
34586;BME280;20816;50.950;11.108;2023-12-07T07:05:33;98825.22;;;1.98;100.00
34586;BME280;20816;50.950;11.108;2023-12-07T07:07:59;98831.22;;;1.95;100.00
34586;BME280;20816;50.950;11.108;2023-12-07T07:10:27;98825.34;;;2.04;100.00
34586;BME280;20816;50.950;11.108;2023-12-07T07:12:54;98831.25;;;1.96;100.00
34586;BME280;20816;50.950;11.108;2023-12-07T07:15:20;98829.59;;;2.02;100.00
34586;BME280;20816;50.950;11.108;2023-12-07T07:17:47;98840.03;;;2.05;100.00
34586;BME280;20816;50.950;11.108;2023-12-07T07:20:14;98833.88;;;2.00;100.00
34586;BME280;20816;50.950;11.108;2023-12-07T07:22:40;98847.69;;;1.99;100.00
34586;BME280;20816;50.950;11.108;2023-12-07T07:25:08;98834.88;;;2.08;100.00
34586;BME280;20816;50.950;11.108;2023-12-07T07:27:35;98829.56;;;1.99;100.00
34586;BME280;20816;50.950;11.108;2023-12-07T07:30:02;98846.06;;;2.04;100.00
34586;BME280;20816;50.950;11.108;2023-12-07T07:32:31;98840.09;;;2.09;100.00
34586;BME280;20816;50.950;11.108;2023-12-07T07:34:58;98846.88;;;2.03;100.00
34586;BME280;20816;50.950;11.108;2023-12-07T07:37:24;98853.03;;;2.08;100.00
34586;BME280;20816;50.950;11.108;2023-12-07T07:39:52;98843.63;;;2.13;100.00
34586;BME280;20816;50.950;11.108;2023-12-07T07:42:18;98853.19;;;2.18;100.00
34586;BME280;20816;50.950;11.108;2023-12-07T07:44:45;98853.16;;;2.15;100.00
34586;BME280;20816;50.950;11.108;2023-12-07T07:47:12;98854.00;;;2.14;100.00
34586;BME280;20816;50.950;11.108;2023-12-07T07:49:39;98847.97;;;2.15;100.00
34586;BME280;20816;50.950;11.108;2023-12-07T07:52:05;98855.63;;;2.08;100.00
34586;BME280;20816;50.950;11.108;2023-12-07T07:54:32;98861.75;;;2.13;100.00
34586;BME280;20816;50.950;11.108;2023-12-07T07:56:59;98854.06;;;2.19;100.00
34586;BME280;20816;50.950;11.108;2023-12-07T07:59:26;98855.75;;;2.17;100.00
34586;BME280;20816;50.950;11.108;2023-12-07T08:01:52;98857.44;;;2.12;100.00
34586;BME280;20816;50.950;11.108;2023-12-07T08:04:19;98848.84;;;2.16;100.00
34586;BME280;20816;50.950;11.108;2023-12-07T08:06:46;98848.84;;;2.16;100.00
34586;BME280;20816;50.950;11.108;2023-12-07T08:09:12;98852.41;;;2.24;100.00
34586;BME280;20816;50.950;11.108;2023-12-07T08:11:39;98855.00;;;2.24;100.00
34586;BME280;20816;50.950;11.108;2023-12-07T08:14:07;98863.75;;;2.29;100.00
34586;BME280;20816;50.950;11.108;2023-12-07T08:16:33;98856.84;;;2.30;100.00
34586;BME280;20816;50.950;11.108;2023-12-07T08:19:00;98862.91;;;2.30;100.00
34586;BME280;20816;50.950;11.108;2023-12-07T08:21:27;98852.53;;;2.30;100.00
34586;BME280;20816;50.950;11.108;2023-12-07T08:23:57;98857.75;;;2.33;100.00
34586;BME280;20816;50.950;11.108;2023-12-07T08:26:23;98863.81;;;2.35;100.00
34586;BME280;20816;50.950;11.108;2023-12-07T08:28:50;98869.00;;;2.35;100.00
34586;BME280;20816;50.950;11.108;2023-12-07T08:31:20;98868.13;;;2.33;100.00
34586;BME280;20816;50.950;11.108;2023-12-07T08:33:52;98874.31;;;2.43;100.00
34586;BME280;20816;50.950;11.108;2023-12-07T08:36:20;98875.28;;;2.49;100.00
34586;BME280;20816;50.950;11.108;2023-12-07T08:38:48;98862.25;;;2.45;100.00
34586;BME280;20816;50.950;11.108;2023-12-07T08:41:15;98873.50;;;2.45;100.00
34586;BME280;20816;50.950;11.108;2023-12-07T08:43:42;98871.81;;;2.50;100.00
34586;BME280;20816;50.950;11.108;2023-12-07T08:46:09;98875.34;;;2.52;100.00
34586;BME280;20816;50.950;11.108;2023-12-07T08:48:36;98877.00;;;2.49;100.00
34586;BME280;20816;50.950;11.108;2023-12-07T08:51:08;98870.97;;;2.51;100.00
34586;BME280;20816;50.950;11.108;2023-12-07T08:53:35;98871.78;;;2.47;100.00
34586;BME280;20816;50.950;11.108;2023-12-07T08:56:02;98875.34;;;2.54;100.00
34586;BME280;20816;50.950;11.108;2023-12-07T08:58:29;98872.88;;;2.63;100.00
34586;BME280;20816;50.950;11.108;2023-12-07T09:00:56;98882.41;;;2.63;100.00
34586;BME280;20816;50.950;11.108;2023-12-07T09:03:22;98871.28;;;2.73;100.00
34586;BME280;20816;50.950;11.108;2023-12-07T09:05:54;98875.47;;;2.62;100.00
34586;BME280;20816;50.950;11.108;2023-12-07T09:08:21;98878.19;;;2.72;100.00
34586;BME280;20816;50.950;11.108;2023-12-07T09:10:48;98880.06;;;2.84;100.00
34586;BME280;20816;50.950;11.108;2023-12-07T09:13:18;98876.69;;;2.88;100.00
34586;BME280;20816;50.950;11.108;2023-12-07T09:15:45;98882.53;;;2.73;100.00
34586;BME280;20816;50.950;11.108;2023-12-07T09:18:11;98882.56;;;2.75;100.00
34586;BME280;20816;50.950;11.108;2023-12-07T09:20:41;98886.94;;;2.79;100.00
34586;BME280;20816;50.950;11.108;2023-12-07T09:23:14;98879.09;;;2.76;100.00
34586;BME280;20816;50.950;11.108;2023-12-07T09:25:45;98880.06;;;2.83;100.00
34586;BME280;20816;50.950;11.108;2023-12-07T09:28:12;98884.41;;;2.84;100.00
34586;BME280;20816;50.950;11.108;2023-12-07T09:30:39;98893.97;;;2.86;100.00
34586;BME280;20816;50.950;11.108;2023-12-07T09:33:05;98883.72;;;2.95;100.00
34586;BME280;20816;50.950;11.108;2023-12-07T09:35:32;98888.81;;;2.91;100.00
34586;BME280;20816;50.950;11.108;2023-12-07T09:38:01;98886.25;;;2.92;100.00
34586;BME280;20816;50.950;11.108;2023-12-07T09:40:29;98887.13;;;2.93;100.00
34586;BME280;20816;50.950;11.108;2023-12-07T09:42:56;98878.44;;;2.89;100.00
34586;BME280;20816;50.950;11.108;2023-12-07T09:45:23;98884.63;;;3.00;100.00
34586;BME280;20816;50.950;11.108;2023-12-07T09:47:54;98885.53;;;3.02;100.00
34586;BME280;20816;50.950;11.108;2023-12-07T09:50:25;98882.00;;;2.97;100.00
34586;BME280;20816;50.950;11.108;2023-12-07T09:52:54;98874.22;;;2.97;100.00
34586;BME280;20816;50.950;11.108;2023-12-07T09:55:34;98873.41;;;3.03;100.00
34586;BME280;20816;50.950;11.108;2023-12-07T09:58:03;98875.91;;;2.95;100.00
34586;BME280;20816;50.950;11.108;2023-12-07T10:00:31;98874.19;;;2.94;100.00
34586;BME280;20816;50.950;11.108;2023-12-07T10:02:59;98882.09;;;3.05;100.00
34586;BME280;20816;50.950;11.108;2023-12-07T10:05:26;98885.47;;;2.99;100.00
34586;BME280;20816;50.950;11.108;2023-12-07T10:07:53;98877.75;;;3.02;100.00
34586;BME280;20816;50.950;11.108;2023-12-07T10:10:20;98877.75;;;3.02;100.00
34586;BME280;20816;50.950;11.108;2023-12-07T10:15:15;98876.88;;;3.02;100.00
34586;BME280;20816;50.950;11.108;2023-12-07T10:17:55;98864.00;;;3.11;100.00
34586;BME280;20816;50.950;11.108;2023-12-07T10:20:25;98870.88;;;3.07;100.00
34586;BME280;20816;50.950;11.108;2023-12-07T10:23:06;98867.56;;;3.18;100.00
34586;BME280;20816;50.950;11.108;2023-12-07T10:25:40;98878.66;;;3.09;100.00
34586;BME280;20816;50.950;11.108;2023-12-07T10:28:10;98872.78;;;3.21;100.00
34586;BME280;20816;50.950;11.108;2023-12-07T10:30:42;98872.88;;;3.30;100.00
34586;BME280;20816;50.950;11.108;2023-12-07T10:33:11;98876.22;;;3.20;100.00
34586;BME280;20816;50.950;11.108;2023-12-07T10:35:41;98872.78;;;3.22;100.00
34586;BME280;20816;50.950;11.108;2023-12-07T10:38:09;98861.44;;;3.17;100.00
34586;BME280;20816;50.950;11.108;2023-12-07T10:40:36;98864.09;;;3.19;100.00
34586;BME280;20816;50.950;11.108;2023-12-07T10:43:07;98859.94;;;3.34;100.00
34586;BME280;20816;50.950;11.108;2023-12-07T10:45:35;98851.34;;;3.42;100.00
34586;BME280;20816;50.950;11.108;2023-12-07T10:48:08;98849.75;;;3.53;100.00
34586;BME280;20816;50.950;11.108;2023-12-07T10:50:41;98840.22;;;3.53;100.00
34586;BME280;20816;50.950;11.108;2023-12-07T10:53:19;98848.03;;;3.56;100.00
34586;BME280;20816;50.950;11.108;2023-12-07T10:56:01;98844.69;;;3.68;100.00
34586;BME280;20816;50.950;11.108;2023-12-07T10:58:28;98849.06;;;3.74;100.00
34586;BME280;20816;50.950;11.108;2023-12-07T11:00:56;98845.59;;;3.72;100.00
34586;BME280;20816;50.950;11.108;2023-12-07T11:03:25;98854.31;;;3.80;100.00
34586;BME280;20816;50.950;11.108;2023-12-07T11:05:52;98848.25;;;3.79;99.20
34586;BME280;20816;50.950;11.108;2023-12-07T11:08:43;98846.44;;;3.68;99.47
34586;BME280;20816;50.950;11.108;2023-12-07T11:11:44;98848.13;;;3.65;99.17
34586;BME280;20816;50.950;11.108;2023-12-07T11:14:15;98838.56;;;3.58;99.24
34586;BME280;20816;50.950;11.108;2023-12-07T11:16:45;98838.56;;;3.61;98.82
34586;BME280;20816;50.950;11.108;2023-12-07T11:22:01;98829.75;;;3.47;99.74
34586;BME280;20816;50.950;11.108;2023-12-07T11:24:28;98824.66;;;3.56;99.45
34586;BME280;20816;50.950;11.108;2023-12-07T11:26:58;98829.84;;;3.55;100.00
34586;BME280;20816;50.950;11.108;2023-12-07T11:29:25;98830.72;;;3.57;99.57
34586;BME280;20816;50.950;11.108;2023-12-07T11:31:56;98831.47;;;3.45;99.88
34586;BME280;20816;50.950;11.108;2023-12-07T11:34:37;98834.09;;;3.50;99.71
34586;BME280;20816;50.950;11.108;2023-12-07T11:37:05;98826.34;;;3.51;99.55
34586;BME280;20816;50.950;11.108;2023-12-07T11:39:36;98826.38;;;3.57;99.44
34586;BME280;20816;50.950;11.108;2023-12-07T11:42:09;98822.88;;;3.52;98.94
34586;BME280;20816;50.950;11.108;2023-12-07T11:44:40;98815.16;;;3.60;99.34
34586;BME280;20816;50.950;11.108;2023-12-07T11:47:08;98809.91;;;3.57;99.00
34586;BME280;20816;50.950;11.108;2023-12-07T11:49:35;98810.75;;;3.51;99.53
34586;BME280;20816;50.950;11.108;2023-12-07T11:52:20;98805.56;;;3.54;100.00
34586;BME280;20816;50.950;11.108;2023-12-07T11:54:49;98802.16;;;3.58;99.77
34586;BME280;20816;50.950;11.108;2023-12-07T11:57:17;98803.03;;;3.59;99.22
34586;BME280;20816;50.950;11.108;2023-12-07T11:59:44;98804.78;;;3.60;98.90
34586;BME280;20816;50.950;11.108;2023-12-07T12:02:12;98806.47;;;3.58;98.97
34586;BME280;20816;50.950;11.108;2023-12-07T12:04:41;98798.81;;;3.72;99.08
34586;BME280;20816;50.950;11.108;2023-12-07T12:07:09;98797.06;;;3.71;99.39
34586;BME280;20816;50.950;11.108;2023-12-07T12:09:35;98800.59;;;3.76;99.07
34586;BME280;20816;50.950;11.108;2023-12-07T12:12:02;98805.78;;;3.79;99.00
34586;BME280;20816;50.950;11.108;2023-12-07T12:14:29;98797.06;;;3.74;98.71
34586;BME280;20816;50.950;11.108;2023-12-07T12:16:56;98794.53;;;3.78;98.53
34586;BME280;20816;50.950;11.108;2023-12-07T12:19:24;98795.41;;;3.82;98.56
34586;BME280;20816;50.950;11.108;2023-12-07T12:22:01;98796.31;;;3.87;98.71
34586;BME280;20816;50.950;11.108;2023-12-07T12:24:33;98797.25;;;3.92;97.38
34586;BME280;20816;50.950;11.108;2023-12-07T12:27:00;98798.97;;;3.93;97.47
34586;BME280;20816;50.950;11.108;2023-12-07T12:29:27;98796.44;;;3.99;97.06
34586;BME280;20816;50.950;11.108;2023-12-07T12:32:01;98788.59;;;3.96;96.18
34586;BME280;20816;50.950;11.108;2023-12-07T12:34:29;98792.06;;;3.95;95.63
34586;BME280;20816;50.950;11.108;2023-12-07T12:36:57;98782.53;;;3.99;94.53
34586;BME280;20816;50.950;11.108;2023-12-07T12:39:30;98775.66;;;4.01;93.48
34586;BME280;20816;50.950;11.108;2023-12-07T12:42:00;98775.56;;;3.91;93.15
34586;BME280;20816;50.950;11.108;2023-12-07T12:44:28;98781.66;;;3.93;92.53
34586;BME280;20816;50.950;11.108;2023-12-07T12:47:05;98775.69;;;4.10;91.44
34586;BME280;20816;50.950;11.108;2023-12-07T12:49:36;98767.94;;;4.17;90.08
34586;BME280;20816;50.950;11.108;2023-12-07T12:52:03;98774.94;;;4.31;89.28
34586;BME280;20816;50.950;11.108;2023-12-07T12:54:31;98770.69;;;4.40;88.82
34586;BME280;20816;50.950;11.108;2023-12-07T12:56:59;98767.28;;;4.49;88.83
34586;BME280;20816;50.950;11.108;2023-12-07T12:59:26;98764.63;;;4.43;86.28
34586;BME280;20816;50.950;11.108;2023-12-07T13:01:53;98759.41;;;4.40;84.99